Time;durP1;ratioP1;P1;durP2;ratioP2;P2;SDS_P1;SDS_P2;PMS_P1;PMS_P2;Temp;Humidity;BMP_temperature;BMP_pressure;BME280_temperature;BME280_humidity;BME280_pressure;Samples;Min_cycle;Max_cycle;Signal;HPM_P1;HPM_P2
2022/08/17 00:00:48;;;;;;;28.50;21.75;;;;;;;;;;5072773;28;20032;-59
2022/08/17 00:03:16;;;;;;;25.30;20.70;;;;;;;;;;5072064;28;20048;-59
2022/08/17 00:05:45;;;;;;;25.50;21.75;;;;;;;;;;5070350;28;20040;-59
2022/08/17 00:08:13;;;;;;;27.88;22.95;;;;;;;;;;5049694;28;20463;-59
2022/08/17 00:10:39;;;;;;;25.73;22.20;;;;;;;;;;5063808;28;20041;-59
2022/08/17 00:13:10;;;;;;;27.10;22.02;;;;;;;;;;5070444;28;20044;-59
2022/08/17 00:15:36;;;;;;;26.85;21.98;;;;;;;;;;5070055;28;20143;-59
2022/08/17 00:18:02;;;;;;;26.48;21.75;;;;;;;;;;5070244;28;20047;-59
2022/08/17 00:20:28;;;;;;;30.85;22.20;;;;;;;;;;5070493;28;20037;-59
2022/08/17 00:23:08;;;;;;;31.42;23.15;;;;;;;;;;5069730;28;20040;-58
2022/08/17 00:25:34;;;;;;;30.10;22.77;;;;;;;;;;5070228;28;20037;-59
2022/08/17 00:28:00;;;;;;;29.83;23.00;;;;;;;;;;5070318;28;20387;-59
2022/08/17 00:30:27;;;;;;;28.25;22.73;;;;;;;;;;5069887;28;20079;-59
2022/08/17 00:32:53;;;;;;;29.20;23.63;;;;;;;;;;5070411;28;20036;-59
2022/08/17 00:35:22;;;;;;;29.98;24.25;;;;;;;;;;5070114;28;20043;-59
2022/08/17 00:37:48;;;;;;;30.40;23.98;;;;;;;;;;5069496;28;20135;-59
2022/08/17 00:40:15;;;;;;;27.30;24.17;;;;;;;;;;5070346;28;20054;-59
2022/08/17 00:42:42;;;;;;;28.58;24.48;;;;;;;;;;5070155;28;20036;-58
2022/08/17 00:45:10;;;;;;;29.33;24.27;;;;;;;;;;5069923;28;20055;-59
2022/08/17 00:47:36;;;;;;;32.10;24.73;;;;;;;;;;5050143;28;20305;-58
2022/08/17 00:50:03;;;;;;;32.72;25.58;;;;;;;;;;5057169;28;20159;-59
2022/08/17 00:52:32;;;;;;;36.00;27.60;;;;;;;;;;5069503;28;20051;-59
2022/08/17 00:54:58;;;;;;;34.00;28.10;;;;;;;;;;5069940;28;20044;-59
2022/08/17 00:57:28;;;;;;;33.50;27.58;;;;;;;;;;5069695;28;20029;-58
2022/08/17 00:59:59;;;;;;;39.70;28.15;;;;;;;;;;5068420;28;20371;-59
2022/08/17 01:02:27;;;;;;;36.70;29.42;;;;;;;;;;5076717;28;20450;-59
2022/08/17 01:04:55;;;;;;;37.45;28.35;;;;;;;;;;5071666;28;20413;-59
2022/08/17 01:07:22;;;;;;;36.65;27.45;;;;;;;;;;5072643;28;20056;-59
2022/08/17 01:09:50;;;;;;;34.22;28.33;;;;;;;;;;5073045;28;20040;-59
2022/08/17 01:12:16;;;;;;;33.58;28.50;;;;;;;;;;5073329;28;20432;-58
2022/08/17 01:14:42;;;;;;;37.90;29.23;;;;;;;;;;5072829;28;20037;-59
2022/08/17 01:17:09;;;;;;;36.60;27.90;;;;;;;;;;5073298;28;20132;-59
2022/08/17 01:19:38;;;;;;;36.50;29.30;;;;;;;;;;5073204;28;20055;-59
2022/08/17 01:22:07;;;;;;;34.17;28.02;;;;;;;;;;5072577;28;20036;-58
2022/08/17 01:24:34;;;;;;;32.88;27.73;;;;;;;;;;5073396;28;20191;-59
2022/08/17 01:27:00;;;;;;;35.67;28.60;;;;;;;;;;5073010;28;20779;-58
2022/08/17 01:29:29;;;;;;;35.63;29.05;;;;;;;;;;5072864;28;20335;-59
2022/08/17 01:31:57;;;;;;;33.05;27.25;;;;;;;;;;5071878;28;20052;-59
2022/08/17 01:34:23;;;;;;;36.70;28.52;;;;;;;;;;5073044;28;20489;-59
2022/08/17 01:36:50;;;;;;;35.85;28.20;;;;;;;;;;5072404;28;20055;-59
2022/08/17 01:39:28;;;;;;;35.95;28.70;;;;;;;;;;5072930;28;20082;-59
2022/08/17 01:41:58;;;;;;;36.03;27.83;;;;;;;;;;5072833;28;20123;-58
2022/08/17 01:44:25;;;;;;;32.60;27.25;;;;;;;;;;5072532;28;20115;-59
2022/08/17 01:46:51;;;;;;;35.28;28.83;;;;;;;;;;5072527;28;20044;-59
2022/08/17 01:49:18;;;;;;;36.22;29.63;;;;;;;;;;5072941;28;20075;-60
2022/08/17 01:51:44;;;;;;;34.08;28.38;;;;;;;;;;5072415;28;20055;-59
2022/08/17 01:54:12;;;;;;;33.95;26.98;;;;;;;;;;5072594;28;20045;-60
2022/08/17 01:56:40;;;;;;;32.05;27.27;;;;;;;;;;5072562;28;20463;-59
2022/08/17 01:59:06;;;;;;;32.13;27.27;;;;;;;;;;5071494;28;20041;-60
2022/08/17 02:01:33;;;;;;;33.80;27.80;;;;;;;;;;5080915;28;20051;-60
2022/08/17 02:03:59;;;;;;;34.90;27.17;;;;;;;;;;5072593;28;20347;-60
2022/08/17 02:06:26;;;;;;;31.23;26.42;;;;;;;;;;5071632;28;20141;-60
2022/08/17 02:08:52;;;;;;;30.42;25.98;;;;;;;;;;5072390;28;20044;-59
2022/08/17 02:11:19;;;;;;;30.98;26.55;;;;;;;;;;5070758;28;20391;-60
2022/08/17 02:13:47;;;;;;;32.75;26.45;;;;;;;;;;5071811;28;20462;-60
2022/08/17 02:16:13;;;;;;;29.75;25.48;;;;;;;;;;5072057;28;20055;-60
2022/08/17 02:18:40;;;;;;;33.65;26.50;;;;;;;;;;5071901;28;20045;-60
2022/08/17 02:21:06;;;;;;;32.63;27.35;;;;;;;;;;5071483;28;20072;-60
2022/08/17 02:23:34;;;;;;;34.90;27.92;;;;;;;;;;5071485;28;20047;-60
2022/08/17 02:26:00;;;;;;;36.03;28.58;;;;;;;;;;5071283;28;20036;-60
2022/08/17 02:28:27;;;;;;;32.95;26.70;;;;;;;;;;5071105;28;20584;-60
2022/08/17 02:30:53;;;;;;;33.70;26.95;;;;;;;;;;5069688;28;20748;-60
2022/08/17 02:33:19;;;;;;;33.25;26.52;;;;;;;;;;5071576;28;20043;-60
2022/08/17 02:35:45;;;;;;;32.28;26.08;;;;;;;;;;5071093;28;20076;-60
2022/08/17 02:38:11;;;;;;;32.45;27.85;;;;;;;;;;5071469;28;20072;-60
2022/08/17 02:40:39;;;;;;;31.42;26.63;;;;;;;;;;5071826;28;20398;-60
2022/08/17 02:43:06;;;;;;;32.55;27.45;;;;;;;;;;5069427;28;20040;-60
2022/08/17 02:45:32;;;;;;;35.95;28.52;;;;;;;;;;5071655;28;20068;-60
2022/08/17 02:47:58;;;;;;;32.22;26.90;;;;;;;;;;5071118;28;20044;-60
2022/08/17 02:50:24;;;;;;;32.42;27.02;;;;;;;;;;5071100;28;20070;-60
2022/08/17 02:52:51;;;;;;;33.35;27.67;;;;;;;;;;5071682;28;20076;-60
2022/08/17 02:55:20;;;;;;;32.63;27.20;;;;;;;;;;5071399;28;20044;-60
2022/08/17 02:57:46;;;;;;;33.45;26.15;;;;;;;;;;5070726;28;20068;-60
2022/08/17 03:00:15;;;;;;;34.67;26.30;;;;;;;;;;5071380;28;20477;-60
2022/08/17 03:02:42;;;;;;;30.95;25.63;;;;;;;;;;5081823;28;20490;-60
2022/08/17 03:05:09;;;;;;;33.72;27.33;;;;;;;;;;5069814;28;20436;-60
2022/08/17 03:07:35;;;;;;;40.35;28.30;;;;;;;;;;5070648;28;20132;-60
2022/08/17 03:10:02;;;;;;;34.40;28.45;;;;;;;;;;5071236;28;20063;-60
2022/08/17 03:12:29;;;;;;;39.85;27.58;;;;;;;;;;5070919;28;20056;-59
2022/08/17 03:14:55;;;;;;;33.25;27.52;;;;;;;;;;5071147;28;20059;-60
2022/08/17 03:17:21;;;;;;;31.05;26.58;;;;;;;;;;5071103;28;20044;-60
2022/08/17 03:19:47;;;;;;;32.45;26.38;;;;;;;;;;5070585;28;20079;-59
2022/08/17 03:22:13;;;;;;;33.50;27.15;;;;;;;;;;5071056;28;20048;-60
2022/08/17 03:24:40;;;;;;;36.05;27.45;;;;;;;;;;5071137;28;20033;-60
2022/08/17 03:27:06;;;;;;;37.80;29.00;;;;;;;;;;5069920;28;20041;-60
2022/08/17 03:29:32;;;;;;;32.83;25.77;;;;;;;;;;5070712;28;20044;-60
2022/08/17 03:31:58;;;;;;;37.33;27.67;;;;;;;;;;5070769;28;20044;-60
2022/08/17 03:34:24;;;;;;;34.53;28.63;;;;;;;;;;5070459;28;20090;-60
2022/08/17 03:36:50;;;;;;;33.30;26.63;;;;;;;;;;5070766;28;20037;-60
2022/08/17 03:39:16;;;;;;;34.15;28.25;;;;;;;;;;5070780;28;20044;-60
2022/08/17 03:41:42;;;;;;;35.13;29.08;;;;;;;;;;5070690;28;20104;-60
2022/08/17 03:44:08;;;;;;;34.05;26.98;;;;;;;;;;5070326;28;20055;-60
2022/08/17 03:57:33;;;;;;;33.58;26.88;;;;;;;;;;5070062;28;20044;-60
2022/08/17 03:59:59;;;;;;;40.53;29.52;;;;;;;;;;5070574;28;20047;-60
2022/08/17 04:02:30;;;;;;;35.78;27.80;;;;;;;;;;5082776;28;20036;-60
2022/08/17 04:04:56;;;;;;;31.10;27.10;;;;;;;;;;5070446;28;20041;-60
2022/08/17 04:07:23;;;;;;;34.75;28.38;;;;;;;;;;5069892;28;20079;-60
2022/08/17 04:09:49;;;;;;;35.00;27.42;;;;;;;;;;5070632;28;20052;-60
2022/08/17 04:12:17;;;;;;;36.83;29.75;;;;;;;;;;5068232;28;20046;-60
2022/08/17 04:14:43;;;;;;;36.38;28.35;;;;;;;;;;5070279;28;20048;-60
2022/08/17 04:17:10;;;;;;;36.40;28.77;;;;;;;;;;5070292;28;20482;-60
2022/08/17 04:19:36;;;;;;;34.08;28.50;;;;;;;;;;5069848;28;20048;-59
2022/08/17 04:22:04;;;;;;;33.92;27.60;;;;;;;;;;5070189;28;20040;-59
2022/08/17 04:24:31;;;;;;;37.03;28.40;;;;;;;;;;5070111;28;20047;-60
2022/08/17 04:26:57;;;;;;;36.53;30.08;;;;;;;;;;5069704;28;20063;-58
2022/08/17 04:29:24;;;;;;;35.38;28.02;;;;;;;;;;5070281;28;20045;-60
2022/08/17 04:31:52;;;;;;;34.10;27.90;;;;;;;;;;5069996;28;20048;-59
2022/08/17 04:34:18;;;;;;;34.55;28.40;;;;;;;;;;5069820;28;20051;-60
2022/08/17 04:36:44;;;;;;;36.42;29.85;;;;;;;;;;5070057;28;20124;-60
2022/08/17 04:39:10;;;;;;;36.03;30.38;;;;;;;;;;5070471;28;20466;-60
2022/08/17 04:44:22;;;;;;;35.78;28.77;;;;;;;;;;5073865;28;20068;-60
2022/08/17 04:46:48;;;;;;;39.58;30.40;;;;;;;;;;5073972;28;20048;-60
2022/08/17 04:49:14;;;;;;;39.42;30.23;;;;;;;;;;5073285;28;20051;-59
2022/08/17 04:51:42;;;;;;;38.33;30.23;;;;;;;;;;5073824;28;20099;-60
2022/08/17 04:54:10;;;;;;;37.85;30.40;;;;;;;;;;5073396;28;20045;-60
2022/08/17 04:56:36;;;;;;;43.75;32.33;;;;;;;;;;5073195;28;20037;-60
2022/08/17 04:59:10;;;;;;;39.67;30.98;;;;;;;;;;5072082;28;20056;-58
2022/08/17 05:01:37;;;;;;;37.97;30.45;;;;;;;;;;5083239;28;20043;-59
2022/08/17 05:04:05;;;;;;;40.53;31.10;;;;;;;;;;5076792;28;20044;-60
2022/08/17 05:06:31;;;;;;;39.38;29.67;;;;;;;;;;5070247;28;20374;-59
2022/08/17 05:08:58;;;;;;;44.40;29.17;;;;;;;;;;5073464;28;20053;-59
2022/08/17 05:11:25;;;;;;;48.80;32.50;;;;;;;;;;5072811;28;20051;-58
2022/08/17 05:13:51;;;;;;;44.83;33.20;;;;;;;;;;5069071;28;21039;-60
2022/08/17 05:16:17;;;;;;;39.30;30.38;;;;;;;;;;5070845;28;20044;-60
2022/08/17 05:18:44;;;;;;;40.22;30.92;;;;;;;;;;5071618;28;20090;-59
2022/08/17 05:21:10;;;;;;;43.55;30.83;;;;;;;;;;5072761;28;20047;-60
2022/08/17 05:23:37;;;;;;;39.47;30.60;;;;;;;;;;5077366;28;20429;-60
2022/08/17 05:26:03;;;;;;;42.65;29.95;;;;;;;;;;5072398;28;20479;-60
2022/08/17 05:28:30;;;;;;;40.03;30.60;;;;;;;;;;5072889;28;20424;-59
2022/08/17 05:30:57;;;;;;;41.78;30.15;;;;;;;;;;5072488;28;20048;-60
2022/08/17 05:33:25;;;;;;;44.60;30.98;;;;;;;;;;5072527;28;20071;-59
2022/08/17 05:35:52;;;;;;;38.72;31.52;;;;;;;;;;5072766;28;20047;-60
2022/08/17 05:38:19;;;;;;;39.75;30.20;;;;;;;;;;5072327;28;20067;-60
2022/08/17 05:40:45;;;;;;;38.20;30.10;;;;;;;;;;5072354;28;20059;-59
2022/08/17 05:43:16;;;;;;;40.17;29.63;;;;;;;;;;5072603;28;20032;-58
2022/08/17 05:45:51;;;;;;;39.65;31.23;;;;;;;;;;5072165;28;20044;-59
2022/08/17 05:48:17;;;;;;;42.17;31.70;;;;;;;;;;5071886;28;20044;-59
2022/08/17 05:50:55;;;;;;;37.47;29.52;;;;;;;;;;5071843;28;20372;-59
2022/08/17 05:53:21;;;;;;;41.75;29.95;;;;;;;;;;5052550;28;20037;-61
2022/08/17 05:55:56;;;;;;;39.67;30.38;;;;;;;;;;5071494;28;20492;-62
2022/08/17 05:58:25;;;;;;;41.17;30.15;;;;;;;;;;5071958;28;20486;-62
2022/08/17 06:01:20;;;;;;;39.35;30.63;;;;;;;;;;5071864;28;20040;-62
2022/08/17 06:03:58;;;;;;;38.85;29.65;;;;;;;;;;5058213;28;20052;-62
2022/08/17 06:06:33;;;;;;;47.10;32.10;;;;;;;;;;5074424;28;20088;-61
2022/08/17 06:09:35;;;;;;;39.15;31.63;;;;;;;;;;5071386;28;20363;-61
2022/08/17 06:12:27;;;;;;;39.37;31.00;;;;;;;;;;5028810;28;20542;-61
2022/08/17 06:15:02;;;;;;;41.65;31.33;;;;;;;;;;5074619;28;20368;-61
2022/08/17 06:17:29;;;;;;;43.75;32.55;;;;;;;;;;5067845;28;20048;-61
2022/08/17 06:19:58;;;;;;;45.65;32.38;;;;;;;;;;5062880;28;20391;-61
2022/08/17 06:22:29;;;;;;;51.17;33.20;;;;;;;;;;5067390;28;20037;-61
2022/08/17 06:25:06;;;;;;;42.50;32.63;;;;;;;;;;5071176;28;20123;-61
2022/08/17 06:27:38;;;;;;;45.15;32.75;;;;;;;;;;5069237;28;20048;-61
2022/08/17 06:30:09;;;;;;;40.33;32.40;;;;;;;;;;5071430;28;20479;-61
2022/08/17 06:32:37;;;;;;;44.88;31.73;;;;;;;;;;5070845;28;20121;-61
2022/08/17 06:35:03;;;;;;;47.63;33.15;;;;;;;;;;5071098;28;20063;-62
2022/08/17 06:37:40;;;;;;;41.83;33.70;;;;;;;;;;5071141;28;20075;-62
2022/08/17 06:40:25;;;;;;;47.17;35.47;;;;;;;;;;5070493;28;20362;-62
2022/08/17 06:43:01;;;;;;;53.78;37.53;;;;;;;;;;5070996;28;20071;-61
2022/08/17 06:45:30;;;;;;;49.88;35.95;;;;;;;;;;5071210;28;20041;-61
2022/08/17 06:48:00;;;;;;;52.50;36.97;;;;;;;;;;5070968;28;20485;-61
2022/08/17 06:50:43;;;;;;;48.92;36.42;;;;;;;;;;5071299;28;20041;-60
2022/08/17 06:53:28;;;;;;;47.83;34.83;;;;;;;;;;5070215;28;20127;-61
2022/08/17 06:55:54;;;;;;;55.30;36.33;;;;;;;;;;5069982;28;20068;-61
2022/08/17 06:58:22;;;;;;;49.05;36.45;;;;;;;;;;5055747;28;20041;-59
2022/08/17 07:00:50;;;;;;;51.88;36.25;;;;;;;;;;5066917;28;20089;-60
2022/08/17 07:03:17;;;;;;;48.05;36.35;;;;;;;;;;5066134;28;20036;-61
2022/08/17 07:05:46;;;;;;;52.03;39.17;;;;;;;;;;5058156;28;20436;-61
2022/08/17 07:08:19;;;;;;;57.75;39.95;;;;;;;;;;5063930;28;20052;-60
2022/08/17 07:10:56;;;;;;;55.42;40.40;;;;;;;;;;5063634;28;20051;-60
2022/08/17 07:13:29;;;;;;;59.97;38.90;;;;;;;;;;5065008;28;20036;-60
2022/08/17 07:16:15;;;;;;;59.50;39.50;;;;;;;;;;5070657;28;20581;-60
2022/08/17 07:18:42;;;;;;;56.65;39.90;;;;;;;;;;5065497;28;20051;-61
2022/08/17 07:21:26;;;;;;;63.28;40.08;;;;;;;;;;5069518;28;20123;-59
2022/08/17 07:23:59;;;;;;;58.97;40.50;;;;;;;;;;5064585;28;20033;-60
2022/08/17 07:26:26;;;;;;;57.70;41.00;;;;;;;;;;5065751;28;20067;-61
2022/08/17 07:28:55;;;;;;;63.15;41.88;;;;;;;;;;5078109;28;20129;-60
2022/08/17 07:31:22;;;;;;;59.47;40.40;;;;;;;;;;5069337;28;20048;-60
2022/08/17 07:34:05;;;;;;;57.20;40.00;;;;;;;;;;5066641;28;20044;-62
2022/08/17 07:36:32;;;;;;;55.10;40.00;;;;;;;;;;5063200;28;20041;-62
2022/08/17 07:38:59;;;;;;;60.88;41.63;;;;;;;;;;5059456;28;20041;-62
2022/08/17 07:41:26;;;;;;;54.55;39.50;;;;;;;;;;5066506;28;20044;-61
2022/08/17 07:43:52;;;;;;;57.80;40.30;;;;;;;;;;5068895;28;20036;-61
2022/08/17 07:49:13;;;;;;;57.75;40.58;;;;;;;;;;5069288;28;20082;-62
2022/08/17 07:51:42;;;;;;;64.75;44.05;;;;;;;;;;5068503;28;20131;-61
2022/08/17 07:54:14;;;;;;;62.55;41.50;;;;;;;;;;5064511;28;20399;-64
2022/08/17 07:56:43;;;;;;;61.53;43.28;;;;;;;;;;5066045;28;20063;-62
2022/08/17 07:59:17;;;;;;;59.58;41.20;;;;;;;;;;5064327;28;20037;-62
2022/08/17 08:02:03;;;;;;;62.55;42.45;;;;;;;;;;5051753;28;20055;-62
2022/08/17 08:07:08;;;;;;;60.58;42.58;;;;;;;;;;5232710;23;20105;-62
2022/08/17 08:09:43;;;;;;;65.97;43.30;;;;;;;;;;5027526;28;20096;-62
2022/08/17 08:12:22;;;;;;;62.60;42.58;;;;;;;;;;5026999;28;20120;-61
2022/08/17 08:14:55;;;;;;;55.85;40.40;;;;;;;;;;5032182;28;20042;-63
2022/08/17 08:17:28;;;;;;;57.90;41.00;;;;;;;;;;5017601;28;20052;-62
2022/08/17 08:19:54;;;;;;;61.45;42.15;;;;;;;;;;5029830;28;20041;-62
2022/08/17 08:22:35;;;;;;;54.97;40.83;;;;;;;;;;5031122;28;20519;-62
2022/08/17 08:25:21;;;;;;;56.67;41.38;;;;;;;;;;5030934;28;20698;-62
2022/08/17 08:27:53;;;;;;;59.17;41.05;;;;;;;;;;5029159;28;20390;-63
2022/08/17 08:30:20;;;;;;;55.65;39.55;;;;;;;;;;5023968;28;20103;-62
2022/08/17 08:33:06;;;;;;;56.42;39.60;;;;;;;;;;5028827;28;20075;-62
2022/08/17 08:35:36;;;;;;;51.47;37.47;;;;;;;;;;5027871;28;20042;-62
2022/08/17 08:38:10;;;;;;;54.28;38.40;;;;;;;;;;5027752;28;20045;-63
2022/08/17 08:40:46;;;;;;;54.55;38.22;;;;;;;;;;5030009;28;20042;-62
2022/08/17 08:43:27;;;;;;;49.30;36.55;;;;;;;;;;5029742;28;20037;-61
2022/08/17 08:45:55;;;;;;;51.92;37.67;;;;;;;;;;5030257;28;20065;-62
2022/08/17 08:48:40;;;;;;;48.63;36.53;;;;;;;;;;5026431;28;20042;-62
2022/08/17 08:51:26;;;;;;;51.67;35.67;;;;;;;;;;5024589;28;20056;-62
2022/08/17 08:54:06;;;;;;;50.45;35.72;;;;;;;;;;5031827;28;20045;-62
2022/08/17 08:56:35;;;;;;;48.45;34.97;;;;;;;;;;5023689;28;20440;-62
2022/08/17 08:59:22;;;;;;;44.78;33.92;;;;;;;;;;5029126;28;20661;-63
2022/08/17 09:02:00;;;;;;;46.50;33.97;;;;;;;;;;5031485;28;20120;-64
2022/08/17 09:04:29;;;;;;;44.25;34.08;;;;;;;;;;5029786;28;20065;-63
2022/08/17 09:07:06;;;;;;;46.05;34.75;;;;;;;;;;5043542;28;20053;-63
2022/08/17 09:09:37;;;;;;;47.60;34.25;;;;;;;;;;5047431;28;20159;-62
2022/08/17 09:12:22;;;;;;;50.33;35.70;;;;;;;;;;5031257;28;20029;-62
2022/08/17 09:14:48;;;;;;;50.53;36.47;;;;;;;;;;5035082;28;20038;-62
2022/08/17 09:17:17;;;;;;;52.45;35.38;;;;;;;;;;5050176;28;20045;-63
2022/08/17 09:19:46;;;;;;;50.10;35.35;;;;;;;;;;5024908;28;20033;-63
2022/08/17 09:22:24;;;;;;;50.80;36.83;;;;;;;;;;5041931;28;20120;-63
2022/08/17 09:25:02;;;;;;;48.53;36.55;;;;;;;;;;5042588;28;20055;-62
2022/08/17 09:27:34;;;;;;;50.72;37.10;;;;;;;;;;5034008;28;20423;-62
2022/08/17 09:30:06;;;;;;;45.00;35.42;;;;;;;;;;5043669;28;20506;-62
2022/08/17 09:32:32;;;;;;;45.00;33.63;;;;;;;;;;5040369;28;20166;-63
2022/08/17 09:35:01;;;;;;;49.00;35.70;;;;;;;;;;5047069;28;20142;-62
2022/08/17 09:37:27;;;;;;;43.78;33.63;;;;;;;;;;5045617;28;21497;-62
2022/08/17 09:39:56;;;;;;;42.85;32.50;;;;;;;;;;5046427;28;20045;-63
2022/08/17 09:42:52;;;;;;;45.10;32.58;;;;;;;;;;5042746;28;20056;-62
2022/08/17 09:45:24;;;;;;;45.38;33.63;;;;;;;;;;5015428;28;20055;-62
2022/08/17 09:47:55;;;;;;;48.03;36.30;;;;;;;;;;5041269;28;20036;-62
2022/08/17 09:50:23;;;;;;;54.35;37.45;;;;;;;;;;5032613;28;20123;-63
2022/08/17 09:52:55;;;;;;;49.53;36.85;;;;;;;;;;5031349;28;20044;-63
2022/08/17 09:55:25;;;;;;;53.78;37.85;;;;;;;;;;5051030;28;20043;-63
2022/08/17 09:57:58;;;;;;;106.05;75.05;;;;;;;;;;5049150;28;20037;-63
2022/08/17 10:00:27;;;;;;;47.75;37.38;;;;;;;;;;5047155;28;20040;-63
2022/08/17 10:03:03;;;;;;;46.22;33.28;;;;;;;;;;5039876;28;20068;-62
2022/08/17 10:05:32;;;;;;;40.33;30.90;;;;;;;;;;5041163;28;20040;-62
2022/08/17 10:08:08;;;;;;;43.55;31.00;;;;;;;;;;5042273;28;20516;-63
2022/08/17 10:10:34;;;;;;;51.10;34.88;;;;;;;;;;5039860;28;20709;-63
2022/08/17 10:13:02;;;;;;;49.72;37.20;;;;;;;;;;5044483;28;20033;-62
2022/08/17 10:15:28;;;;;;;49.05;34.08;;;;;;;;;;5039353;28;20079;-62
2022/08/17 10:18:02;;;;;;;42.30;31.15;;;;;;;;;;5048083;28;20075;-62
2022/08/17 10:20:35;;;;;;;38.33;30.40;;;;;;;;;;5041164;28;20149;-61
2022/08/17 10:26:14;;;;;;;44.15;32.80;;;;;;;;;;5039699;28;20033;-61
2022/08/17 10:28:44;;;;;;;41.83;32.13;;;;;;;;;;5044337;28;20057;-61
2022/08/17 10:31:12;;;;;;;43.55;32.15;;;;;;;;;;5042849;28;20351;-61
2022/08/17 10:33:50;;;;;;;43.70;29.58;;;;;;;;;;5031636;28;20475;-60
2022/08/17 10:36:22;;;;;;;36.25;27.25;;;;;;;;;;5035708;28;20036;-61
2022/08/17 10:38:58;;;;;;;32.55;25.92;;;;;;;;;;5036743;28;20131;-60
2022/08/17 10:41:32;;;;;;;35.33;27.33;;;;;;;;;;5050681;28;20039;-61
2022/08/17 10:44:11;;;;;;;31.10;26.50;;;;;;;;;;5044971;28;20041;-61
2022/08/17 10:46:55;;;;;;;35.03;25.48;;;;;;;;;;5043201;28;20073;-61
2022/08/17 10:49:26;;;;;;;35.58;26.17;;;;;;;;;;5031215;28;20116;-61
2022/08/17 10:51:54;;;;;;;34.35;25.20;;;;;;;;;;5044615;28;20051;-61
2022/08/17 10:54:34;;;;;;;37.30;27.77;;;;;;;;;;5045939;28;20051;-60
2022/08/17 10:57:00;;;;;;;34.03;26.25;;;;;;;;;;5038579;28;20029;-61
2022/08/17 10:59:49;;;;;;;27.92;23.08;;;;;;;;;;5039186;28;20482;-62
2022/08/17 11:02:18;;;;;;;34.53;26.67;;;;;;;;;;5038434;28;20045;-62
2022/08/17 11:04:48;;;;;;;27.58;22.83;;;;;;;;;;5043730;28;20044;-61
2022/08/17 11:07:21;;;;;;;30.35;22.63;;;;;;;;;;5045401;28;20053;-62
2022/08/17 11:09:47;;;;;;;28.40;21.90;;;;;;;;;;5045603;28;20041;-61
2022/08/17 11:12:37;;;;;;;25.27;20.42;;;;;;;;;;5044941;28;20127;-61
2022/08/17 11:15:13;;;;;;;22.48;18.83;;;;;;;;;;5005327;28;20052;-61
2022/08/17 11:17:42;;;;;;;23.25;19.50;;;;;;;;;;5046570;28;20049;-61
2022/08/17 11:20:23;;;;;;;29.25;18.73;;;;;;;;;;5013574;28;20127;-61
2022/08/17 11:22:58;;;;;;;28.50;20.45;;;;;;;;;;5030950;28;20046;-62
2022/08/17 11:25:37;;;;;;;23.23;19.00;;;;;;;;;;5043416;28;20036;-61
2022/08/17 11:28:18;;;;;;;27.90;19.77;;;;;;;;;;5042251;28;20056;-61
2022/08/17 11:30:51;;;;;;;21.50;17.80;;;;;;;;;;5033306;28;20036;-61
2022/08/17 11:33:33;;;;;;;25.02;19.30;;;;;;;;;;5048517;28;20084;-61
2022/08/17 11:36:02;;;;;;;24.65;19.95;;;;;;;;;;5037205;28;20090;-61
2022/08/17 11:38:41;;;;;;;22.88;17.60;;;;;;;;;;5035299;28;20041;-62
2022/08/17 11:41:13;;;;;;;23.75;18.98;;;;;;;;;;5048477;28;20037;-61
2022/08/17 11:43:42;;;;;;;;;;;;;;;;;;5046737;28;20037;-61
2022/08/17 11:46:24;;;;;;;26.65;20.25;;;;;;;;;;5043880;28;19921;-61
2022/08/17 11:51:53;;;;;;;22.40;19.27;;;;;;;;;;5024346;28;20462;-61
2022/08/17 11:54:38;;;;;;;20.75;18.55;;;;;;;;;;5038637;28;20045;-61
2022/08/17 11:57:23;;;;;;;20.95;16.73;;;;;;;;;;5037705;28;20045;-61
2022/08/17 11:59:57;;;;;;;23.42;18.10;;;;;;;;;;5039121;28;20041;-61
2022/08/17 12:02:29;;;;;;;24.92;17.08;;;;;;;;;;5042545;28;20037;-60
2022/08/17 12:05:11;;;;;;;21.48;18.70;;;;;;;;;;5037793;28;20615;-60
2022/08/17 12:07:41;;;;;;;23.42;17.92;;;;;;;;;;5018298;28;20441;-61
2022/08/17 12:10:11;;;;;;;22.42;18.52;;;;;;;;;;5040765;28;20478;-60
2022/08/17 12:12:42;;;;;;;26.35;21.05;;;;;;;;;;5042187;28;20090;-60
2022/08/17 12:15:13;;;;;;;24.95;21.05;;;;;;;;;;5041323;28;20045;-61
2022/08/17 12:17:39;;;;;;;21.55;18.80;;;;;;;;;;5033860;28;20042;-60
2022/08/17 12:20:12;;;;;;;25.42;20.23;;;;;;;;;;5039039;28;20033;-61
2022/08/17 12:22:53;;;;;;;23.85;19.08;;;;;;;;;;5040184;28;20040;-61
2022/08/17 12:25:21;;;;;;;22.77;19.83;;;;;;;;;;5039733;28;20132;-60
2022/08/17 12:27:49;;;;;;;23.50;19.50;;;;;;;;;;5034192;28;20564;-62
2022/08/17 12:30:17;;;;;;;22.88;18.92;;;;;;;;;;5046376;28;20041;-60
2022/08/17 12:32:46;;;;;;;23.52;19.27;;;;;;;;;;5040897;28;20044;-59
2022/08/17 12:35:33;;;;;;;27.05;20.58;;;;;;;;;;5037429;28;20117;-60
2022/08/17 12:38:00;;;;;;;22.42;18.27;;;;;;;;;;5039250;28;20582;-60
2022/08/17 12:40:30;;;;;;;25.35;19.05;;;;;;;;;;5039137;28;20029;-60
2022/08/17 12:42:56;;;;;;;21.65;17.48;;;;;;;;;;5047220;28;20409;-60
2022/08/17 12:45:28;;;;;;;20.88;17.20;;;;;;;;;;5045276;28;20099;-58
2022/08/17 12:48:07;;;;;;;20.75;16.52;;;;;;;;;;5029649;28;20400;-60
2022/08/17 12:50:35;;;;;;;21.45;17.48;;;;;;;;;;5029745;28;20513;-60
2022/08/17 12:53:02;;;;;;;20.02;17.88;;;;;;;;;;5040773;28;20052;-60
2022/08/17 12:55:29;;;;;;;22.42;16.40;;;;;;;;;;5032685;28;20474;-60
2022/08/17 12:57:58;;;;;;;20.02;15.27;;;;;;;;;;5043981;28;20041;-60
2022/08/17 13:00:36;;;;;;;18.25;14.02;;;;;;;;;;5030576;28;20140;-60
2022/08/17 13:03:18;;;;;;;21.30;16.50;;;;;;;;;;5032981;28;20046;-59
2022/08/17 13:05:55;;;;;;;23.23;16.13;;;;;;;;;;5040752;28;20079;-60
2022/08/17 13:08:35;;;;;;;18.48;14.05;;;;;;;;;;5022093;28;20049;-60
2022/08/17 13:11:23;;;;;;;22.60;15.75;;;;;;;;;;5042065;28;20048;-59
2022/08/17 13:13:51;;;;;;;22.63;14.60;;;;;;;;;;5048485;28;20045;-60
2022/08/17 13:16:17;;;;;;;16.48;14.02;;;;;;;;;;5037849;28;20048;-60
2022/08/17 13:18:46;;;;;;;14.13;12.35;;;;;;;;;;5032787;28;20563;-60
2022/08/17 13:21:12;;;;;;;14.85;12.57;;;;;;;;;;5035777;28;20045;-60
2022/08/17 13:23:38;;;;;;;15.75;12.52;;;;;;;;;;5033108;28;20041;-60
2022/08/17 13:26:06;;;;;;;15.25;12.07;;;;;;;;;;5032465;28;20037;-59
2022/08/17 13:28:35;;;;;;;12.43;10.93;;;;;;;;;;5032902;28;20535;-60
2022/08/17 13:31:20;;;;;;;13.02;11.00;;;;;;;;;;5041536;28;20053;-60
2022/08/17 13:33:46;;;;;;;14.02;12.45;;;;;;;;;;5040410;28;20091;-60
2022/08/17 13:36:12;;;;;;;14.40;12.77;;;;;;;;;;5040815;28;20541;-60
2022/08/17 13:38:46;;;;;;;14.80;13.05;;;;;;;;;;5042674;28;20041;-60
2022/08/17 13:41:33;;;;;;;15.27;12.90;;;;;;;;;;5039724;28;20048;-60
2022/08/17 13:43:59;;;;;;;15.60;13.88;;;;;;;;;;5038950;28;20286;-60
2022/08/17 13:46:30;;;;;;;20.00;13.52;;;;;;;;;;5052444;28;20039;-60
2022/08/17 13:49:10;;;;;;;18.15;13.25;;;;;;;;;;5039852;28;20041;-59
2022/08/17 13:51:47;;;;;;;19.20;14.55;;;;;;;;;;5034085;28;20510;-59
2022/08/17 13:54:33;;;;;;;20.08;14.90;;;;;;;;;;5046168;28;20595;-60
2022/08/17 13:57:08;;;;;;;20.75;17.80;;;;;;;;;;5041012;28;20097;-59
2022/08/17 13:59:36;;;;;;;24.10;19.85;;;;;;;;;;5021518;28;20049;-60
2022/08/17 14:02:02;;;;;;;21.08;17.42;;;;;;;;;;5045191;28;20429;-59
2022/08/17 14:04:32;;;;;;;20.23;17.65;;;;;;;;;;5047395;28;20041;-60
2022/08/17 14:07:01;;;;;;;23.40;18.52;;;;;;;;;;5031724;28;20054;-60
2022/08/17 14:09:36;;;;;;;27.73;21.25;;;;;;;;;;5035354;28;20038;-60
2022/08/17 14:12:03;;;;;;;24.55;21.83;;;;;;;;;;5031903;28;20044;-59
2022/08/17 14:14:29;;;;;;;28.27;21.17;;;;;;;;;;5035858;28;20124;-60
2022/08/17 14:16:56;;;;;;;25.73;21.65;;;;;;;;;;5043778;28;20037;-60
2022/08/17 14:19:23;;;;;;;26.27;21.25;;;;;;;;;;5045449;28;20041;-59
2022/08/17 14:21:49;;;;;;;28.13;21.23;;;;;;;;;;5036594;28;20038;-59
2022/08/17 14:24:23;;;;;;;34.85;22.83;;;;;;;;;;5043308;28;20140;-60
2022/08/17 14:26:50;;;;;;;29.75;23.85;;;;;;;;;;5051728;28;20032;-59
2022/08/17 14:29:17;;;;;;;31.42;23.83;;;;;;;;;;5033663;28;20048;-59
2022/08/17 14:31:43;;;;;;;26.40;23.30;;;;;;;;;;5050674;28;20382;-59
2022/08/17 14:34:09;;;;;;;27.65;23.00;;;;;;;;;;5035687;28;20646;-60
2022/08/17 14:36:36;;;;;;;30.73;24.90;;;;;;;;;;5051394;28;20052;-58
2022/08/17 14:39:02;;;;;;;31.17;24.92;;;;;;;;;;5051646;28;20110;-60
2022/08/17 14:41:28;;;;;;;29.83;24.52;;;;;;;;;;5033516;28;20033;-58
2022/08/17 14:43:54;;;;;;;29.42;25.15;;;;;;;;;;5032823;28;20167;-58
2022/08/17 14:46:20;;;;;;;38.05;27.27;;;;;;;;;;5036632;28;20036;-59
2022/08/17 14:48:47;;;;;;;30.08;25.48;;;;;;;;;;5045079;28;20052;-58
2022/08/17 14:51:14;;;;;;;33.72;25.92;;;;;;;;;;5031477;28;20080;-58
2022/08/17 14:53:41;;;;;;;34.22;25.17;;;;;;;;;;5031103;28;20067;-58
2022/08/17 14:56:07;;;;;;;31.42;26.25;;;;;;;;;;5030720;28;20451;-58
2022/08/17 14:58:33;;;;;;;31.88;25.25;;;;;;;;;;5031658;28;20614;-58
2022/08/17 15:01:00;;;;;;;30.88;26.40;;;;;;;;;;5035852;28;20036;-58